createdAt,value
2023-05-24T00:02:04.281Z,41.60
2023-05-24T00:04:54.883Z,42.20
2023-05-24T00:07:45.318Z,42.70
2023-05-24T00:10:34.155Z,42.30
2023-05-24T00:13:23.028Z,43.20
2023-05-24T00:16:37.537Z,43.20
2023-05-24T00:19:27.620Z,42.20
2023-05-24T00:22:18.191Z,42.50
2023-05-24T00:25:11.355Z,43.90
2023-05-24T00:28:00.142Z,43.00
2023-05-24T00:30:49.154Z,42.80
2023-05-24T00:33:38.014Z,43.20
2023-05-24T00:36:27.166Z,43.40
2023-05-24T00:39:17.350Z,42.80
2023-05-24T00:42:06.904Z,43.70
2023-05-24T00:44:55.732Z,44.00
2023-05-24T00:47:47.897Z,44.30
2023-05-24T00:50:36.893Z,45.50
2023-05-24T00:53:26.162Z,45.70
2023-05-24T00:56:22.013Z,45.40
2023-05-24T00:59:22.582Z,46.10
2023-05-24T01:02:11.375Z,46.50
2023-05-24T01:05:04.086Z,47.10
2023-05-24T01:08:17.147Z,48.00
2023-05-24T01:11:14.323Z,47.80
2023-05-24T01:14:18.013Z,47.90
2023-05-24T01:17:15.248Z,48.10
2023-05-24T01:20:08.581Z,46.90
2023-05-24T01:23:16.930Z,47.90
2023-05-24T01:26:18.953Z,49.10
2023-05-24T01:29:09.648Z,48.70
2023-05-24T01:31:58.614Z,49.40
2023-05-24T01:34:47.382Z,50.50
2023-05-24T01:37:37.171Z,51.40
2023-05-24T01:40:25.940Z,51.60
2023-05-24T01:43:19.788Z,52.10
2023-05-24T01:46:19.142Z,53.00
2023-05-24T01:49:23.648Z,53.70
2023-05-24T01:52:17.404Z,54.80
2023-05-24T01:55:08.208Z,54.70
2023-05-24T01:58:03.305Z,55.40
2023-05-24T02:00:53.388Z,56.00
2023-05-24T02:03:43.789Z,57.40
2023-05-24T02:06:32.516Z,57.90
2023-05-24T02:09:21.448Z,57.60
2023-05-24T02:12:11.676Z,58.60
2023-05-24T02:15:00.412Z,58.00
2023-05-24T02:17:49.413Z,58.10
2023-05-24T02:20:39.947Z,57.90
2023-05-24T02:23:30.647Z,58.30
2023-05-24T02:26:19.780Z,58.30
2023-05-24T02:29:08.584Z,58.60
2023-05-24T02:31:57.411Z,59.10
2023-05-24T02:34:46.339Z,59.70
2023-05-24T02:37:36.510Z,60.00
2023-05-24T02:40:25.279Z,61.70
2023-05-24T02:43:14.069Z,63.90
2023-05-24T02:46:02.770Z,65.50
2023-05-24T02:48:51.544Z,66.90
2023-05-24T02:51:40.339Z,68.00
2023-05-24T02:54:30.492Z,69.20
2023-05-24T02:57:19.462Z,70.30
2023-05-24T03:00:09.933Z,71.20
2023-05-24T03:03:02.800Z,71.70
2023-05-24T03:05:51.586Z,72.80
2023-05-24T03:08:40.307Z,72.80
2023-05-24T03:11:30.540Z,73.30
2023-05-24T03:14:20.575Z,75.30
2023-05-24T03:17:09.339Z,78.70
2023-05-24T03:19:58.167Z,81.20
2023-05-24T03:22:46.900Z,82.60
2023-05-24T03:25:35.683Z,83.10
2023-05-24T03:28:25.909Z,84.50
2023-05-24T03:31:14.757Z,86.40
2023-05-24T03:34:03.611Z,89.50
2023-05-24T03:36:52.970Z,89.40
2023-05-24T03:39:41.699Z,90.00
2023-05-24T03:42:30.396Z,91.30
2023-05-24T03:45:30.616Z,91.30
2023-05-24T03:48:27.085Z,92.20
2023-05-24T03:51:15.852Z,93.10
2023-05-24T03:54:04.857Z,93.50
2023-05-24T03:56:53.965Z,93.20
2023-05-24T03:59:42.821Z,92.00
2023-05-24T04:02:33.023Z,91.70
2023-05-24T04:05:22.003Z,91.80
2023-05-24T04:08:10.903Z,92.00
2023-05-24T04:10:59.658Z,92.80
2023-05-24T04:13:48.362Z,92.70
2023-05-24T04:16:39.855Z,93.00
2023-05-24T04:19:30.056Z,92.80
2023-05-24T04:22:18.932Z,92.10
2023-05-24T04:25:10.145Z,91.60
2023-05-24T04:27:59.033Z,90.90
2023-05-24T04:30:47.754Z,89.90
2023-05-24T04:33:36.520Z,90.40
2023-05-24T04:36:26.827Z,90.90
2023-05-24T04:39:15.966Z,91.00
2023-05-24T04:42:05.372Z,91.20
2023-05-24T04:44:54.064Z,92.90
2023-05-24T04:47:43.504Z,92.90
2023-05-24T04:50:32.309Z,94.20
2023-05-24T04:53:23.182Z,94.50
2023-05-24T04:56:15.086Z,94.20
2023-05-24T04:59:04.401Z,92.10
2023-05-24T05:01:53.341Z,92.00
2023-05-24T05:04:42.204Z,90.10
2023-05-24T05:07:30.932Z,85.20
2023-05-24T05:10:23.676Z,83.70
2023-05-24T05:13:12.604Z,82.10
2023-05-24T05:16:02.069Z,81.10
2023-05-24T05:18:50.876Z,80.00
2023-05-24T05:21:40.113Z,79.60
2023-05-24T05:24:28.993Z,77.80
2023-05-24T05:27:20.266Z,77.30
2023-05-24T05:30:10.310Z,77.10
2023-05-24T05:32:59.447Z,76.00
2023-05-24T05:35:59.001Z,75.80
2023-05-24T05:38:47.899Z,75.80
2023-05-24T05:41:45.852Z,74.10
2023-05-24T05:44:58.894Z,74.90
2023-05-24T05:47:47.893Z,74.70
2023-05-24T05:50:36.536Z,70.80
2023-05-24T05:53:36.959Z,68.60
2023-05-24T05:56:37.479Z,64.50
2023-05-24T05:59:36.470Z,60.90
2023-05-24T06:02:32.479Z,59.30
2023-05-24T06:05:21.676Z,57.50
2023-05-24T06:08:10.534Z,55.40
2023-05-24T06:11:00.198Z,50.70
2023-05-24T06:13:49.411Z,54.10
2023-05-24T06:16:42.725Z,51.00
2023-05-24T06:19:32.915Z,47.70
2023-05-24T06:22:22.374Z,51.10
2023-05-24T06:25:15.934Z,50.90
2023-05-24T06:28:05.816Z,48.10
2023-05-24T06:30:54.653Z,47.00
2023-05-24T06:37:31.475Z,50.70
2023-05-24T06:40:20.594Z,50.00
2023-05-24T06:43:09.278Z,50.10
2023-05-24T06:45:58.172Z,49.90
2023-05-24T06:48:49.403Z,48.50
2023-05-24T06:51:48.512Z,49.00
2023-05-24T06:54:43.911Z,39.50
2023-05-24T06:57:41.139Z,39.10
2023-05-24T07:00:48.857Z,39.30
2023-05-24T07:03:37.882Z,39.60
2023-05-24T07:06:27.156Z,35.10
2023-05-24T07:09:16.119Z,33.30
2023-05-24T07:12:09.001Z,34.80
2023-05-24T07:14:58.017Z,30.60
2023-05-24T07:17:48.373Z,33.40
2023-05-24T07:20:37.233Z,30.70
2023-05-24T07:23:26.641Z,30.10
2023-05-24T07:26:32.024Z,25.70
2023-05-24T07:29:23.618Z,26.30
2023-05-24T07:32:12.377Z,27.90
2023-05-24T07:35:01.375Z,26.70
2023-05-24T07:37:50.223Z,27.50
2023-05-24T07:40:39.601Z,22.30
2023-05-24T07:43:28.500Z,22.70
2023-05-24T07:49:15.574Z,25.70
2023-05-24T07:52:04.761Z,19.00
2023-05-24T07:54:53.687Z,21.50
2023-05-24T07:57:42.835Z,19.50
2023-05-24T08:00:31.638Z,17.20
2023-05-24T08:03:21.944Z,18.40
2023-05-24T08:06:11.891Z,12.90
2023-05-24T08:09:00.691Z,14.60
2023-05-24T08:11:49.319Z,9.90
2023-05-24T08:14:39.649Z,11.10
2023-05-24T08:17:30.046Z,8.30
2023-05-24T08:20:53.673Z,7.80
2023-05-24T08:23:54.053Z,10.00
2023-05-24T08:26:45.969Z,11.10
2023-05-24T08:29:36.762Z,11.80
2023-05-24T08:32:28.273Z,11.40
2023-05-24T08:35:21.126Z,12.20
2023-05-24T08:38:12.243Z,14.00
2023-05-24T08:41:01.806Z,13.80
2023-05-24T08:43:51.208Z,12.60
2023-05-24T08:46:41.431Z,13.70
2023-05-24T08:49:33.791Z,12.00
2023-05-24T08:52:24.074Z,14.30
2023-05-24T11:10:37.360Z,1.00
2023-05-24T11:13:29.234Z,1.00
2023-05-24T11:16:38.217Z,1.00
2023-05-24T11:19:34.043Z,1.00
2023-05-24T11:22:25.446Z,1.00
2023-05-24T11:25:14.500Z,1.00
2023-05-24T11:28:05.249Z,1.00
2023-05-24T11:30:54.042Z,1.00
2023-05-24T11:33:43.758Z,1.00
2023-05-24T11:36:33.456Z,1.00
2023-05-24T11:39:23.672Z,1.00
2023-05-24T11:42:12.554Z,1.00
2023-05-24T11:45:03.131Z,1.00
2023-05-24T11:47:52.312Z,1.00
2023-05-24T11:50:49.119Z,1.00
2023-05-24T11:53:38.818Z,1.00
2023-05-24T11:56:31.562Z,1.00
2023-05-24T11:59:25.477Z,1.00
2023-05-24T12:02:15.975Z,1.00
2023-05-24T12:05:09.990Z,1.00
2023-05-24T12:08:06.506Z,1.00
2023-05-24T12:10:55.528Z,1.00
2023-05-24T12:13:45.156Z,1.00
2023-05-24T12:16:34.164Z,1.00
2023-05-24T12:19:33.109Z,1.00
2023-05-24T12:22:31.060Z,1.00
2023-05-24T12:25:22.112Z,1.00
2023-05-24T12:28:11.188Z,1.00
2023-05-24T12:31:00.015Z,1.00
2023-05-24T12:33:51.554Z,1.00
2023-05-24T12:36:44.400Z,1.00
2023-05-24T12:39:35.466Z,1.00
2023-05-24T12:42:24.650Z,1.00
2023-05-24T12:45:14.566Z,1.00
2023-05-24T12:48:05.269Z,1.00
2023-05-24T12:50:54.276Z,1.00
2023-05-24T12:53:44.643Z,1.00
2023-05-24T12:56:33.800Z,1.00
2023-05-24T12:59:23.658Z,1.00
2023-05-24T13:02:12.602Z,1.00
2023-05-24T13:05:01.716Z,1.00
2023-05-24T13:07:53.288Z,1.00
2023-05-24T13:10:43.946Z,1.00
2023-05-24T13:13:33.117Z,1.00
2023-05-24T13:16:22.155Z,1.00
2023-05-24T13:19:12.104Z,1.00
2023-05-24T13:22:00.983Z,1.00
2023-05-24T13:24:50.070Z,1.00
2023-05-24T13:27:41.200Z,1.00
2023-05-24T13:30:30.276Z,1.00
2023-05-24T13:33:19.320Z,1.00
2023-05-24T13:36:08.776Z,1.00
2023-05-24T13:39:13.235Z,1.00
2023-05-24T13:42:05.020Z,1.00
2023-05-24T13:44:56.421Z,1.00
2023-05-24T13:47:47.930Z,1.00
2023-05-24T13:50:37.813Z,1.00
2023-05-24T13:53:28.402Z,1.00
2023-05-24T13:56:19.135Z,1.00
2023-05-24T13:59:08.858Z,1.00
2023-05-24T14:01:59.445Z,1.00
2023-05-24T14:04:48.689Z,1.00
2023-05-24T14:07:40.413Z,1.00
2023-05-24T14:10:29.605Z,1.00
2023-05-24T14:16:13.064Z,1.00
2023-05-24T14:19:03.553Z,1.00
2023-05-24T14:21:52.474Z,1.00
2023-05-24T14:24:41.496Z,1.00
2023-05-24T14:27:30.394Z,1.00
2023-05-24T14:30:19.887Z,1.00
2023-05-24T14:33:11.694Z,1.00
2023-05-24T14:36:02.787Z,1.00
2023-05-24T14:38:52.203Z,1.00
2023-05-24T14:41:41.240Z,1.00
2023-05-24T14:44:31.220Z,1.00
2023-05-24T14:47:21.121Z,1.00
2023-05-24T14:50:10.693Z,1.00
2023-05-24T14:53:01.952Z,1.00
2023-05-24T14:55:52.822Z,1.00
2023-05-24T14:58:42.386Z,1.00
2023-05-24T15:01:34.014Z,1.00
2023-05-24T15:04:23.316Z,1.00
2023-05-24T15:07:12.547Z,1.00
2023-05-24T15:10:03.860Z,1.00
2023-05-24T15:12:53.064Z,1.00
2023-05-24T15:15:42.331Z,1.00
2023-05-24T15:18:33.142Z,1.00
2023-05-24T15:21:22.588Z,1.00
2023-05-24T15:24:13.417Z,1.00
2023-05-24T15:27:04.056Z,1.00
2023-05-24T15:29:59.061Z,1.00
2023-05-24T15:32:48.460Z,1.00
2023-05-24T15:35:38.475Z,1.00
2023-05-24T15:38:30.068Z,1.00
2023-05-24T15:41:19.470Z,1.00
2023-05-24T15:44:10.209Z,1.00
2023-05-24T15:46:59.631Z,1.00
2023-05-24T15:49:50.510Z,1.00
2023-05-24T15:52:39.486Z,1.00
2023-05-24T15:55:33.269Z,1.00
2023-05-24T15:58:22.599Z,1.00
2023-05-24T16:01:14.328Z,1.00
2023-05-24T16:04:03.201Z,1.00
2023-05-24T16:06:52.116Z,1.00
2023-05-24T16:09:41.634Z,1.00
2023-05-24T16:12:30.691Z,1.00
2023-05-24T16:15:19.823Z,1.00
2023-05-24T16:18:10.894Z,1.00
2023-05-24T16:20:59.730Z,1.00
2023-05-24T16:23:49.344Z,1.00
2023-05-24T16:26:38.080Z,1.00
2023-05-24T16:29:27.068Z,1.00
2023-05-24T16:32:16.330Z,1.00
2023-05-24T16:35:07.707Z,1.00
2023-05-24T16:37:57.248Z,1.00
2023-05-24T16:40:46.322Z,1.00
2023-05-24T16:43:35.203Z,1.00
2023-05-24T21:21:11.219Z,74.40
2023-05-24T21:33:18.751Z,76.40
2023-05-24T21:50:18.409Z,77.70
2023-05-24T21:53:07.180Z,77.20
2023-05-24T21:55:56.503Z,77.30
2023-05-24T21:58:46.176Z,78.10
2023-05-24T22:01:35.014Z,77.40
2023-05-24T22:04:23.888Z,78.50
2023-05-24T22:07:14.265Z,79.20
2023-05-24T22:10:03.191Z,79.50
2023-05-24T22:12:51.939Z,80.10
2023-05-24T22:15:40.856Z,80.60
2023-05-24T22:18:30.663Z,80.90
2023-05-24T22:21:21.696Z,81.30
2023-05-24T22:24:12.683Z,82.80
2023-05-24T22:27:02.643Z,83.90
2023-05-24T22:30:05.396Z,85.10
2023-05-24T22:32:54.213Z,84.60
2023-05-24T22:35:43.274Z,84.30
2023-05-24T22:38:32.092Z,84.20
2023-05-24T22:41:22.920Z,84.20
2023-05-24T22:44:11.933Z,84.10
2023-05-24T22:47:02.171Z,83.70
2023-05-24T22:49:54.099Z,83.90
2023-05-24T22:52:43.520Z,83.80
2023-05-24T22:55:32.257Z,84.90
2023-05-24T22:58:24.095Z,85.50
2023-05-24T23:01:12.911Z,84.60
2023-05-24T23:04:18.827Z,85.10
2023-05-24T23:07:09.584Z,85.20
2023-05-24T23:09:59.872Z,85.80
2023-05-24T23:12:48.642Z,86.00
2023-05-24T23:15:39.202Z,85.80
2023-05-24T23:18:28.179Z,86.40
2023-05-24T23:21:16.973Z,86.30
2023-05-24T23:24:07.231Z,87.10
2023-05-24T23:26:57.226Z,86.80
2023-05-24T23:29:46.368Z,87.30
2023-05-24T23:32:36.593Z,87.30
2023-05-24T23:35:25.379Z,87.40
2023-05-24T23:38:14.188Z,86.60
2023-05-24T23:41:02.928Z,87.00
2023-05-24T23:43:52.555Z,86.70
2023-05-24T23:46:42.179Z,86.30
2023-05-24T23:49:32.342Z,86.70
2023-05-24T23:52:21.396Z,86.90
2023-05-24T23:55:10.580Z,86.50
2023-05-24T23:58:00.535Z,87.40
